Time;durP1;ratioP1;P1;durP2;ratioP2;P2;SDS_P1;SDS_P2;PMS_P1;PMS_P2;Temp;Humidity;BMP_temperature;BMP_pressure;BME280_temperature;BME280_humidity;BME280_pressure;Samples;Min_cycle;Max_cycle;Signal;HPM_P1;HPM_P2
2022/06/29 00:03:05;;;;;;;5.82;1.90;;;;;;;-145.70;100.00;63560.63;4974969;28;20038;-60
2022/06/29 00:06:29;;;;;;;7.18;2.42;;;;;;;-145.70;100.00;63560.63;4980731;28;20120;-61
2022/06/29 00:09:53;;;;;;;7.88;2.47;;;;;;;-145.70;100.00;63560.63;4994971;28;20105;-61
2022/06/29 00:13:17;;;;;;;5.75;2.17;;;;;;;-145.70;100.00;63560.63;4997053;28;20040;-61
2022/06/29 00:16:40;;;;;;;7.22;1.98;;;;;;;-145.70;100.00;63560.63;4982013;28;20084;-63
2022/06/29 00:20:05;;;;;;;5.35;1.83;;;;;;;-145.70;100.00;63560.63;4975560;28;20034;-60
2022/06/29 00:23:29;;;;;;;5.68;2.20;;;;;;;-145.70;100.00;63560.63;4981963;28;20045;-61
2022/06/29 00:26:53;;;;;;;6.03;1.88;;;;;;;-145.70;100.00;63560.63;4980648;28;20027;-61
2022/06/29 00:30:17;;;;;;;5.72;1.98;;;;;;;-145.70;100.00;63560.63;4980236;28;20662;-60
2022/06/29 00:33:41;;;;;;;7.28;2.10;;;;;;;-145.70;100.00;63560.63;4997491;28;20389;-60
2022/06/29 00:37:05;;;;;;;6.20;2.15;;;;;;;-145.70;100.00;63560.63;4982887;28;20080;-60
2022/06/29 00:40:29;;;;;;;7.00;2.00;;;;;;;-145.70;100.00;63560.63;4984902;28;20088;-61
2022/06/29 00:43:53;;;;;;;9.52;2.05;;;;;;;-145.70;100.00;63560.63;4984979;28;20030;-60
2022/06/29 00:47:17;;;;;;;8.43;2.60;;;;;;;-145.70;100.00;63560.63;4977008;28;20448;-61
2022/06/29 00:50:41;;;;;;;6.10;2.00;;;;;;;-145.70;100.00;63560.63;4972267;28;20510;-64
2022/06/29 00:54:05;;;;;;;6.45;1.98;;;;;;;-145.70;100.00;63560.63;4979201;28;20045;-61
2022/06/29 00:57:30;;;;;;;9.00;2.35;;;;;;;-145.70;100.00;63560.63;4978329;28;20149;-62
2022/06/29 01:01:00;;;;;;;6.55;1.92;;;;;;;-145.70;100.00;63560.63;4993751;28;20030;-63
2022/06/29 01:04:24;;;;;;;5.93;2.20;;;;;;;-145.70;100.00;63560.63;4980872;28;20084;-64
2022/06/29 01:07:48;;;;;;;9.32;2.20;;;;;;;-145.70;100.00;63560.63;4994810;28;20378;-65
2022/06/29 01:11:12;;;;;;;6.80;2.00;;;;;;;-145.70;100.00;63560.63;4980265;28;20449;-62
2022/06/29 01:14:44;;;;;;;6.68;2.10;;;;;;;-145.70;100.00;63560.63;4975244;28;20521;-61
2022/06/29 01:18:08;;;;;;;6.18;2.28;;;;;;;-145.70;100.00;63560.63;4995818;28;20077;-60
2022/06/29 01:21:32;;;;;;;6.57;2.30;;;;;;;-145.70;100.00;63560.63;4974110;28;20416;-61
2022/06/29 01:24:56;;;;;;;10.02;2.15;;;;;;;-145.70;100.00;63560.63;4980946;28;21841;-60
2022/06/29 01:28:20;;;;;;;4.78;1.92;;;;;;;-145.70;100.00;63560.63;4978521;28;20026;-62
2022/06/29 01:31:44;;;;;;;8.15;2.22;;;;;;;-145.70;100.00;63560.63;4979099;28;20026;-62
2022/06/29 01:35:09;;;;;;;7.32;2.45;;;;;;;-145.70;100.00;63560.63;4981574;28;20030;-60
2022/06/29 01:38:35;;;;;;;5.05;2.05;;;;;;;-145.70;100.00;63560.63;4995895;28;20049;-61
2022/06/29 01:41:59;;;;;;;4.80;1.85;;;;;;;-145.70;100.00;63560.63;4969214;28;20922;-61
2022/06/29 01:45:23;;;;;;;6.78;2.10;;;;;;;-145.70;100.00;63560.63;4979004;28;20041;-60
2022/06/29 01:48:47;;;;;;;6.10;2.20;;;;;;;-145.70;100.00;63560.63;4973280;28;20027;-62
2022/06/29 01:52:10;;;;;;;5.63;1.90;;;;;;;-145.70;100.00;63560.63;4994655;28;20386;-59
2022/06/29 01:55:34;;;;;;;6.95;2.33;;;;;;;-145.70;100.00;63560.63;4972959;28;20417;-61
2022/06/29 01:58:58;;;;;;;6.13;2.00;;;;;;;-145.70;100.00;63560.63;4985149;28;20053;-60
2022/06/29 02:02:22;;;;;;;6.32;2.10;;;;;;;-145.70;100.00;63560.63;4981912;28;20492;-61
2022/06/29 02:05:46;;;;;;;7.55;2.17;;;;;;;-145.70;100.00;63560.63;4983394;28;20061;-61
2022/06/29 02:09:10;;;;;;;5.50;2.35;;;;;;;-145.70;100.00;63560.63;4984540;28;20060;-62
2022/06/29 02:12:34;;;;;;;7.40;2.35;;;;;;;-145.70;100.00;63560.63;4986001;28;20096;-63
2022/06/29 02:15:58;;;;;;;5.88;2.10;;;;;;;-145.70;100.00;63560.63;4980678;28;20029;-60
2022/06/29 02:19:22;;;;;;;5.25;2.08;;;;;;;-145.70;100.00;63560.63;4985263;28;20108;-61
2022/06/29 02:22:46;;;;;;;8.77;2.75;;;;;;;-145.70;100.00;63560.63;4983790;28;20038;-60
2022/06/29 02:26:10;;;;;;;8.15;2.20;;;;;;;-145.70;100.00;63560.63;4978117;28;20030;-60
2022/06/29 02:29:33;;;;;;;5.70;1.80;;;;;;;-145.70;100.00;63560.63;4982681;28;20076;-61
2022/06/29 02:36:40;;;;;;;6.85;1.92;;;;;;;-145.70;100.00;63560.63;4980707;28;20049;-59
2022/06/29 02:40:04;;;;;;;4.57;1.73;;;;;;;-145.70;100.00;63560.63;4980106;28;20580;-61
2022/06/29 02:43:28;;;;;;;5.78;2.10;;;;;;;-145.70;100.00;63560.63;5005151;28;20029;-60
2022/06/29 02:46:52;;;;;;;7.22;2.22;;;;;;;-145.70;100.00;63560.63;4984212;28;20397;-60
2022/06/29 02:50:16;;;;;;;7.53;2.45;;;;;;;-145.70;100.00;63560.63;4985514;28;20546;-61
2022/06/29 02:53:40;;;;;;;8.48;2.30;;;;;;;-145.70;100.00;63560.63;4987133;28;20087;-60
2022/06/29 02:57:04;;;;;;;14.25;2.95;;;;;;;-145.70;100.00;63560.63;4981887;28;20141;-61
2022/06/29 03:00:28;;;;;;;5.60;2.40;;;;;;;-145.70;100.00;63560.63;4984877;28;20566;-60
2022/06/29 03:03:52;;;;;;;8.00;2.22;;;;;;;-145.70;100.00;63560.63;4994357;28;20064;-66
2022/06/29 03:07:16;;;;;;;7.88;2.38;;;;;;;-145.70;100.00;63560.63;4983691;28;20034;-61
2022/06/29 03:10:40;;;;;;;6.55;2.10;;;;;;;-145.70;100.00;63560.63;4997847;28;20563;-62
2022/06/29 03:14:04;;;;;;;7.03;2.22;;;;;;;-145.70;100.00;63560.63;4985890;28;20056;-61
2022/06/29 03:17:28;;;;;;;5.78;2.00;;;;;;;-145.70;100.00;63560.63;4983780;28;20034;-60
2022/06/29 03:20:51;;;;;;;8.90;2.13;;;;;;;-145.70;100.00;63560.63;4983088;28;20124;-60
2022/06/29 03:24:15;;;;;;;7.20;2.08;;;;;;;-145.70;100.00;63560.63;4982942;28;20174;-61
2022/06/29 03:27:39;;;;;;;5.85;1.98;;;;;;;-145.70;100.00;63560.63;4979421;28;20422;-60
2022/06/29 03:31:04;;;;;;;4.78;2.10;;;;;;;-145.70;100.00;63560.63;4983470;28;20100;-60
2022/06/29 03:34:28;;;;;;;8.85;2.20;;;;;;;-145.70;100.00;63560.63;4995129;28;20650;-59
2022/06/29 03:37:51;;;;;;;8.63;2.10;;;;;;;-145.70;100.00;63560.63;4984056;28;20136;-62
2022/06/29 03:41:16;;;;;;;7.97;2.22;;;;;;;-145.70;100.00;63560.63;4983958;28;20185;-59
2022/06/29 03:44:40;;;;;;;8.23;2.13;;;;;;;-145.70;100.00;63560.63;4985179;28;20060;-59
2022/06/29 03:48:04;;;;;;;6.93;2.17;;;;;;;-145.70;100.00;63560.63;4976321;28;20112;-62
2022/06/29 03:51:27;;;;;;;7.55;2.15;;;;;;;-145.70;100.00;63560.63;4983790;28;20378;-60
2022/06/29 03:54:51;;;;;;;7.05;2.10;;;;;;;-145.70;100.00;63560.63;4983835;28;20030;-61
2022/06/29 03:58:15;;;;;;;8.07;2.47;;;;;;;-145.70;100.00;63560.63;4982295;28;20877;-60
2022/06/29 04:01:39;;;;;;;8.70;2.10;;;;;;;-145.70;100.00;63560.63;4983151;28;20058;-60
2022/06/29 04:05:04;;;;;;;8.02;2.25;;;;;;;-145.70;100.00;63560.63;4982307;28;20069;-60
2022/06/29 04:08:28;;;;;;;7.88;2.08;;;;;;;-145.70;100.00;63560.63;4984158;28;20046;-60
2022/06/29 04:11:53;;;;;;;7.78;2.28;;;;;;;-145.70;100.00;63560.63;4983653;28;20042;-60
2022/06/29 04:15:18;;;;;;;5.38;1.77;;;;;;;-145.70;100.00;63560.63;4983906;28;20068;-61
2022/06/29 04:18:42;;;;;;;6.18;1.88;;;;;;;-145.70;100.00;63560.63;4983872;28;20042;-62
2022/06/29 04:22:06;;;;;;;7.10;2.00;;;;;;;-145.70;100.00;63560.63;4999217;28;20232;-60
2022/06/29 04:25:29;;;;;;;7.40;2.50;;;;;;;-145.70;100.00;63560.63;4981639;28;20040;-60
2022/06/29 04:28:53;;;;;;;7.72;2.17;;;;;;;-145.70;100.00;63560.63;4975665;28;20057;-61
2022/06/29 04:32:17;;;;;;;5.65;1.98;;;;;;;-145.70;100.00;63560.63;4978163;28;20066;-60
2022/06/29 04:35:41;;;;;;;8.63;2.00;;;;;;;-145.70;100.00;63560.63;4982330;28;20045;-61
2022/06/29 04:39:05;;;;;;;5.60;1.83;;;;;;;-145.70;100.00;63560.63;4979893;28;20035;-61
2022/06/29 04:42:29;;;;;;;7.70;1.90;;;;;;;-145.70;100.00;63560.63;4981294;28;20038;-61
2022/06/29 04:49:36;;;;;;;5.88;1.85;;;;;;;-145.70;100.00;63560.63;4982021;28;20072;-61
2022/06/29 04:53:00;;;;;;;5.72;1.90;;;;;;;-145.70;100.00;63560.63;4982500;28;20161;-61
2022/06/29 04:56:25;;;;;;;7.30;2.00;;;;;;;-145.70;100.00;63560.63;4981831;28;20237;-63
2022/06/29 04:59:48;;;;;;;8.40;2.17;;;;;;;-145.70;100.00;63560.63;4995697;28;20056;-60
2022/06/29 05:03:12;;;;;;;6.50;1.80;;;;;;;-145.70;100.00;63560.63;4998742;28;20082;-61
2022/06/29 05:06:36;;;;;;;8.07;1.60;;;;;;;-145.70;100.00;63560.63;4982479;28;20485;-61
2022/06/29 05:10:00;;;;;;;5.85;1.90;;;;;;;-145.70;100.00;63560.63;4965826;28;20666;-61
2022/06/29 05:13:24;;;;;;;7.50;2.22;;;;;;;-145.70;100.00;63560.63;4981657;28;20520;-64
2022/06/29 05:16:48;;;;;;;6.53;2.10;;;;;;;-145.70;100.00;63560.63;4979846;28;20037;-60
2022/06/29 05:20:12;;;;;;;5.85;2.30;;;;;;;-145.70;100.00;63560.63;4997498;28;20045;-60
2022/06/29 05:23:36;;;;;;;8.93;2.30;;;;;;;-145.70;100.00;63560.63;4995595;28;20042;-62
2022/06/29 05:27:00;;;;;;;4.82;2.00;;;;;;;-145.70;100.00;63560.63;4976618;28;20121;-60
2022/06/29 05:30:24;;;;;;;6.43;2.42;;;;;;;-145.70;100.00;63560.63;4980621;28;20038;-62
2022/06/29 05:33:48;;;;;;;7.10;2.00;;;;;;;-145.70;100.00;63560.63;4981837;28;20030;-60
2022/06/29 05:37:12;;;;;;;8.45;2.17;;;;;;;-145.70;100.00;63560.63;4996158;28;20048;-60
2022/06/29 05:40:36;;;;;;;5.65;2.10;;;;;;;-145.70;100.00;63560.63;4981494;28;20478;-60
2022/06/29 05:44:02;;;;;;;6.05;1.88;;;;;;;-145.70;100.00;63560.63;4996762;28;20100;-60
2022/06/29 05:47:27;;;;;;;7.05;2.20;;;;;;;-145.70;100.00;63560.63;4981033;28;20402;-60
2022/06/29 05:50:51;;;;;;;6.10;2.58;;;;;;;-145.70;100.00;63560.63;4979927;28;20517;-61
2022/06/29 05:54:15;;;;;;;4.85;1.58;;;;;;;-145.70;100.00;63560.63;4981029;28;20314;-60
2022/06/29 05:57:39;;;;;;;8.10;1.80;;;;;;;-145.70;100.00;63560.63;4984803;28;20061;-60
2022/06/29 06:01:08;;;;;;;5.97;1.48;;;;;;;-145.70;100.00;63560.63;4920363;28;20042;-59
2022/06/29 06:04:32;;;;;;;6.78;1.90;;;;;;;-145.70;100.00;63560.63;4973461;28;20153;-61
2022/06/29 06:07:56;;;;;;;4.97;1.60;;;;;;;-145.70;100.00;63560.63;4986652;28;20097;-61
2022/06/29 06:11:20;;;;;;;5.68;1.90;;;;;;;-145.70;100.00;63560.63;4973666;28;20648;-61
2022/06/29 06:14:44;;;;;;;5.35;1.95;;;;;;;-145.70;100.00;63560.63;4978475;28;20088;-63
2022/06/29 06:18:08;;;;;;;6.45;1.88;;;;;;;-145.70;100.00;63560.63;4991798;28;20035;-60
2022/06/29 06:21:32;;;;;;;10.25;1.90;;;;;;;-145.70;100.00;63560.63;4970470;28;20034;-60
2022/06/29 06:24:56;;;;;;;6.85;1.80;;;;;;;-145.70;100.00;63560.63;4990135;28;20559;-60
2022/06/29 06:28:20;;;;;;;9.07;1.77;;;;;;;-145.70;100.00;63560.63;4971366;28;20035;-59
2022/06/29 06:31:45;;;;;;;5.18;1.83;;;;;;;-145.70;100.00;63560.63;4969439;28;20038;-61
2022/06/29 06:35:09;;;;;;;7.80;1.92;;;;;;;-145.70;100.00;63560.63;4966190;28;20541;-62
2022/06/29 06:38:33;;;;;;;7.53;2.40;;;;;;;-145.70;100.00;63560.63;4974322;28;20026;-61
2022/06/29 06:41:57;;;;;;;4.95;1.40;;;;;;;-145.70;100.00;63560.63;4977073;28;20030;-60
2022/06/29 06:45:21;;;;;;;6.45;1.70;;;;;;;-145.70;100.00;63560.63;4979291;28;20037;-60
2022/06/29 06:48:45;;;;;;;7.95;2.13;;;;;;;-145.70;100.00;63560.63;4976000;28;20472;-60
2022/06/29 06:52:10;;;;;;;5.93;1.85;;;;;;;-145.70;100.00;63560.63;4978859;28;20037;-60
2022/06/29 06:55:34;;;;;;;6.57;1.90;;;;;;;-145.70;100.00;63560.63;4960175;28;20038;-61
2022/06/29 06:58:58;;;;;;;5.80;1.92;;;;;;;-145.70;100.00;63560.63;4972965;28;20127;-60
2022/06/29 07:02:22;;;;;;;7.53;1.60;;;;;;;-145.70;100.00;63560.63;4991536;28;20026;-62
2022/06/29 07:05:46;;;;;;;4.25;1.40;;;;;;;-145.70;100.00;63560.63;4978647;28;20110;-61
2022/06/29 07:09:11;;;;;;;5.45;1.80;;;;;;;-145.70;100.00;63560.63;4978700;28;20485;-61
2022/06/29 07:12:35;;;;;;;6.63;1.90;;;;;;;-145.70;100.00;63560.63;4962581;28;20137;-60
2022/06/29 07:15:59;;;;;;;7.60;1.73;;;;;;;-145.70;100.00;63560.63;4965360;28;20354;-61
2022/06/29 07:19:23;;;;;;;6.88;1.90;;;;;;;-145.70;100.00;63560.63;4970985;28;20046;-61
2022/06/29 07:22:47;;;;;;;6.80;2.03;;;;;;;-145.70;100.00;63560.63;4958469;28;20121;-61
2022/06/29 07:26:11;;;;;;;7.28;2.20;;;;;;;-145.70;100.00;63560.63;4992302;28;20034;-62
2022/06/29 07:29:36;;;;;;;6.15;1.88;;;;;;;-145.70;100.00;63560.63;4960135;28;22537;-62
2022/06/29 07:32:59;;;;;;;6.57;1.67;;;;;;;-145.70;100.00;63560.63;4981212;28;20022;-62
2022/06/29 07:36:25;;;;;;;7.53;1.85;;;;;;;-145.70;100.00;63560.63;4960667;28;20037;-65
2022/06/29 07:39:50;;;;;;;4.25;1.70;;;;;;;-145.70;100.00;63560.63;4971043;28;20888;-62
2022/06/29 07:43:14;;;;;;;6.90;1.90;;;;;;;-145.70;100.00;63560.63;4977946;28;20341;-61
2022/06/29 07:46:38;;;;;;;7.03;1.70;;;;;;;-145.70;100.00;63560.63;4973652;28;20037;-61
2022/06/29 07:50:03;;;;;;;5.55;1.50;;;;;;;-145.70;100.00;63560.63;4969036;28;20041;-60
2022/06/29 07:53:27;;;;;;;7.95;1.67;;;;;;;-145.70;100.00;63560.63;4970633;28;20609;-63
2022/06/29 07:56:50;;;;;;;5.50;1.58;;;;;;;-145.70;100.00;63560.63;4988589;28;20034;-63
2022/06/29 08:00:15;;;;;;;8.48;1.52;;;;;;;-145.70;100.00;63560.63;4976084;28;20492;-62
2022/06/29 08:03:38;;;;;;;8.75;1.83;;;;;;;-145.70;100.00;63560.63;4974324;28;20161;-61
2022/06/29 08:07:02;;;;;;;7.82;1.90;;;;;;;-145.70;100.00;63560.63;4971660;28;20054;-63
2022/06/29 08:10:26;;;;;;;5.30;1.60;;;;;;;-145.70;100.00;63560.63;4921339;28;20035;-60
2022/06/29 08:13:50;;;;;;;7.03;1.70;;;;;;;-145.70;100.00;63560.63;4972497;28;20489;-60
2022/06/29 08:17:14;;;;;;;6.60;1.65;;;;;;;-145.70;100.00;63560.63;4976141;28;20038;-65
2022/06/29 08:20:38;;;;;;;6.70;1.70;;;;;;;-145.70;100.00;63560.63;4978665;28;20057;-64
2022/06/29 08:24:03;;;;;;;9.45;1.73;;;;;;;-145.70;100.00;63560.63;4975154;28;20030;-60
2022/06/29 08:27:27;;;;;;;5.28;1.40;;;;;;;-145.70;100.00;63560.63;4981177;28;20041;-63
2022/06/29 08:30:51;;;;;;;5.63;1.48;;;;;;;-145.70;100.00;63560.63;4989483;28;20038;-60
2022/06/29 08:34:21;;;;;;;6.88;1.92;;;;;;;-145.70;100.00;63560.63;4970176;28;20520;-64
2022/06/29 08:37:45;;;;;;;6.65;1.60;;;;;;;-145.70;100.00;63560.63;4977983;28;20337;-64
2022/06/29 08:41:10;;;;;;;6.22;1.67;;;;;;;-145.70;100.00;63560.63;4969766;28;20068;-61
2022/06/29 08:44:36;;;;;;;5.65;1.33;;;;;;;-145.70;100.00;63560.63;4973993;28;20038;-64
2022/06/29 08:48:01;;;;;;;7.80;1.70;;;;;;;-145.70;100.00;63560.63;4958364;28;20037;-63
2022/06/29 08:51:26;;;;;;;7.72;1.60;;;;;;;-145.70;100.00;63560.63;4977779;28;20026;-63
2022/06/29 08:54:52;;;;;;;6.20;1.30;;;;;;;-145.70;100.00;63560.63;4973792;28;20057;-61
2022/06/29 08:58:23;;;;;;;6.30;1.58;;;;;;;-145.70;100.00;63560.63;4968459;28;20162;-62
2022/06/29 09:01:47;;;;;;;6.47;1.60;;;;;;;-145.70;100.00;63560.63;4992239;28;20044;-60
2022/06/29 09:05:11;;;;;;;6.47;1.50;;;;;;;-145.70;100.00;63560.63;4975731;28;20773;-62
2022/06/29 09:08:35;;;;;;;5.25;1.75;;;;;;;-145.70;100.00;63560.63;4974906;28;20214;-63
2022/06/29 09:12:18;;;;;;;6.10;1.52;;;;;;;-145.70;100.00;63560.63;4975420;28;20022;-62
2022/06/29 09:15:42;;;;;;;5.22;1.60;;;;;;;-145.70;100.00;63560.63;4975179;28;20582;-63
2022/06/29 09:19:26;;;;;;;8.23;1.80;;;;;;;-145.70;100.00;63560.63;4977383;28;20036;-63
2022/06/29 09:22:53;;;;;;;5.97;1.55;;;;;;;-145.70;100.00;63560.63;4979506;28;20026;-64
2022/06/29 09:26:28;;;;;;;6.75;1.67;;;;;;;-145.70;100.00;63560.63;4979669;28;20030;-64
2022/06/29 09:29:52;;;;;;;7.18;1.40;;;;;;;-145.70;100.00;63560.63;4989222;28;20953;-63
2022/06/29 09:33:17;;;;;;;7.57;1.67;;;;;;;-145.70;100.00;63560.63;4977181;28;20070;-62
2022/06/29 09:36:53;;;;;;;8.98;2.35;;;;;;;-145.70;100.00;63560.63;4980827;28;20137;-63
2022/06/29 09:40:43;;;;;;;9.07;1.90;;;;;;;-145.70;100.00;63560.63;4979849;28;20085;-65
2022/06/29 09:44:07;;;;;;;6.70;1.90;;;;;;;-145.70;100.00;63560.63;4970130;28;20022;-63
2022/06/29 09:47:31;;;;;;;7.70;1.58;;;;;;;-145.70;100.00;63560.63;4972914;28;20038;-63
2022/06/29 09:50:55;;;;;;;7.47;1.60;;;;;;;-145.70;100.00;63560.63;4974069;28;20137;-62
2022/06/29 09:54:47;;;;;;;5.63;1.80;;;;;;;-145.70;100.00;63560.63;4974902;28;20100;-64
2022/06/29 09:58:12;;;;;;;6.28;1.92;;;;;;;-145.70;100.00;63560.63;4976902;28;20030;-64
2022/06/29 10:05:23;;;;;;;6.13;1.45;;;;;;;-145.70;100.00;63560.63;4975473;28;20064;-63
2022/06/29 10:08:51;;;;;;;7.05;1.90;;;;;;;-145.70;100.00;63560.63;4976594;28;20125;-63
2022/06/29 10:16:22;;;;;;;6.05;1.75;;;;;;;-145.70;100.00;63560.63;4978938;28;20041;-64
2022/06/29 10:20:17;;;;;;;8.80;1.85;;;;;;;-145.70;100.00;63560.63;4979492;28;20054;-62
2022/06/29 10:23:51;;;;;;;8.00;1.77;;;;;;;-145.70;100.00;63560.63;4983256;28;20058;-63
2022/06/29 10:27:24;;;;;;;9.38;1.77;;;;;;;-145.70;100.00;63560.63;4980281;28;20029;-63
2022/06/29 10:30:48;;;;;;;8.18;2.00;;;;;;;-145.70;100.00;63560.63;4998469;28;20038;-63
2022/06/29 10:34:30;;;;;;;6.40;1.77;;;;;;;-145.70;100.00;63560.63;4959011;28;20549;-62
2022/06/29 10:37:57;;;;;;;8.80;1.83;;;;;;;-145.70;100.00;63560.63;4978172;28;20512;-64
2022/06/29 10:45:06;;;;;;;8.43;1.70;;;;;;;-145.70;100.00;63560.63;4969396;28;20787;-64
2022/06/29 10:48:31;;;;;;;5.38;1.70;;;;;;;-145.70;100.00;63560.63;4981373;28;20250;-63
2022/06/29 10:51:55;;;;;;;6.43;1.80;;;;;;;-145.70;100.00;63560.63;4995099;28;20133;-63
2022/06/29 10:55:23;;;;;;;7.13;1.60;;;;;;;-145.70;100.00;63560.63;4972453;28;20069;-63
2022/06/29 10:58:47;;;;;;;7.43;1.77;;;;;;;-145.70;100.00;63560.63;4975103;28;20514;-63
2022/06/29 11:02:14;;;;;;;9.85;2.22;;;;;;;-145.70;100.00;63560.63;4975771;28;20145;-62
2022/06/29 11:13:11;;;;;;;6.82;1.73;;;;;;;-145.70;100.00;63560.63;4973533;28;20084;-64
2022/06/29 11:16:36;;;;;;;8.70;1.63;;;;;;;-145.70;100.00;63560.63;4972797;28;20054;-63
2022/06/29 11:20:15;;;;;;;7.53;1.52;;;;;;;-145.70;100.00;63560.63;4986380;28;20828;-63
2022/06/29 11:23:53;;;;;;;7.03;1.75;;;;;;;-145.70;100.00;63560.63;4975093;28;20030;-63
2022/06/29 11:27:29;;;;;;;7.03;1.63;;;;;;;-145.70;100.00;63560.63;4979120;28;20551;-63
2022/06/29 11:31:12;;;;;;;7.55;1.95;;;;;;;-145.70;100.00;63560.63;4979558;28;20488;-63
2022/06/29 11:34:39;;;;;;;10.00;1.92;;;;;;;-145.70;100.00;63560.63;4980721;28;20759;-63
2022/06/29 11:38:05;;;;;;;8.82;2.03;;;;;;;-145.70;100.00;63560.63;4975219;28;20395;-63
2022/06/29 11:45:20;;;;;;;7.75;1.80;;;;;;;-145.70;100.00;63560.63;4958827;28;20252;-64
2022/06/29 11:52:36;;;;;;;10.32;1.92;;;;;;;-145.70;100.00;63560.63;4977059;28;20088;-63
2022/06/29 11:56:00;;;;;;;9.57;1.73;;;;;;;-145.70;100.00;63560.63;4988780;28;20022;-64
2022/06/29 11:59:25;;;;;;;7.25;1.77;;;;;;;-145.70;100.00;63560.63;4977607;28;20112;-63
2022/06/29 12:02:56;;;;;;;5.35;1.70;;;;;;;-145.70;100.00;63560.63;4980102;28;20871;-62
2022/06/29 12:06:22;;;;;;;8.13;1.77;;;;;;;-145.70;100.00;63560.63;4985528;28;20030;-63
2022/06/29 12:09:50;;;;;;;6.78;1.75;;;;;;;-145.70;100.00;63560.63;4979205;28;20082;-62
2022/06/29 12:13:14;;;;;;;8.18;1.67;;;;;;;-145.70;100.00;63560.63;4984858;28;20080;-63
2022/06/29 12:16:45;;;;;;;6.55;1.70;;;;;;;-145.70;100.00;63560.63;4981661;28;20026;-63
2022/06/29 12:20:11;;;;;;;10.02;2.00;;;;;;;-145.70;100.00;63560.63;4974993;28;20135;-63
2022/06/29 12:23:35;;;;;;;5.10;1.65;;;;;;;-145.70;100.00;63560.63;4955342;28;20034;-63
2022/06/29 12:26:59;;;;;;;8.43;1.92;;;;;;;-145.70;100.00;63560.63;4983331;28;20074;-64
2022/06/29 12:30:23;;;;;;;8.98;2.35;;;;;;;-145.70;100.00;63560.63;4975340;28;20505;-63
2022/06/29 12:33:47;;;;;;;6.20;1.73;;;;;;;-145.70;100.00;63560.63;4991653;28;20384;-61
2022/06/29 12:37:10;;;;;;;7.13;1.83;;;;;;;-145.70;100.00;63560.63;4975818;28;20139;-63
2022/06/29 12:40:35;;;;;;;6.93;1.60;;;;;;;-145.70;100.00;63560.63;4990491;28;20106;-62
2022/06/29 12:43:59;;;;;;;7.50;2.08;;;;;;;-145.70;100.00;63560.63;4992106;28;20117;-62
2022/06/29 12:47:24;;;;;;;8.23;1.55;;;;;;;-145.70;100.00;63560.63;4979927;28;20806;-62
2022/06/29 12:50:48;;;;;;;7.80;1.90;;;;;;;-145.70;100.00;63560.63;4987372;28;20041;-63
2022/06/29 12:54:13;;;;;;;7.47;1.60;;;;;;;-145.70;100.00;63560.63;4974638;28;20125;-65
2022/06/29 12:57:37;;;;;;;5.35;1.60;;;;;;;-145.70;100.00;63560.63;4961499;28;20096;-65
2022/06/29 13:01:01;;;;;;;7.05;1.80;;;;;;;-145.70;100.00;63560.63;4984381;28;20056;-64
2022/06/29 13:04:25;;;;;;;5.22;1.55;;;;;;;-145.70;100.00;63560.63;4979825;28;20425;-63
2022/06/29 13:07:49;;;;;;;7.70;1.55;;;;;;;-145.70;100.00;63560.63;4980141;28;20034;-63
2022/06/29 13:11:13;;;;;;;10.80;1.60;;;;;;;-145.70;100.00;63560.63;4978117;28;21645;-63
2022/06/29 13:14:37;;;;;;;4.13;1.30;;;;;;;-145.70;100.00;63560.63;4984550;28;20223;-64
2022/06/29 13:18:02;;;;;;;7.43;1.30;;;;;;;-145.70;100.00;63560.63;4981277;28;20359;-64
2022/06/29 13:21:27;;;;;;;5.60;1.40;;;;;;;-145.70;100.00;63560.63;4984540;28;20477;-63
2022/06/29 13:24:51;;;;;;;6.63;1.50;;;;;;;-145.70;100.00;63560.63;4977551;28;20058;-63
2022/06/29 13:28:14;;;;;;;8.13;1.73;;;;;;;-145.70;100.00;63560.63;4987800;28;20034;-64
2022/06/29 13:31:41;;;;;;;6.88;1.73;;;;;;;-145.70;100.00;63560.63;4980221;28;20034;-65
2022/06/29 13:35:09;;;;;;;6.00;1.40;;;;;;;-145.70;100.00;63560.63;4976150;28;20034;-64
2022/06/29 13:38:33;;;;;;;7.47;1.42;;;;;;;-145.70;100.00;63560.63;4977520;28;20054;-63
2022/06/29 13:41:58;;;;;;;6.30;1.70;;;;;;;-145.70;100.00;63560.63;4962530;28;20121;-63
2022/06/29 13:45:22;;;;;;;6.32;1.30;;;;;;;-145.70;100.00;63560.63;4980547;28;20054;-63
2022/06/29 13:48:46;;;;;;;9.00;1.73;;;;;;;-145.70;100.00;63560.63;4994286;28;20113;-64
2022/06/29 13:52:10;;;;;;;5.57;1.70;;;;;;;-145.70;100.00;63560.63;4991875;28;20800;-64
2022/06/29 13:55:34;;;;;;;5.85;1.33;;;;;;;-145.70;100.00;63560.63;4998489;28;20081;-63
2022/06/29 13:58:57;;;;;;;8.85;1.80;;;;;;;-145.70;100.00;63560.63;4975736;28;20461;-62
2022/06/29 14:02:21;;;;;;;11.07;2.20;;;;;;;-145.70;100.00;63560.63;4953715;28;20498;-67
2022/06/29 14:05:45;;;;;;;8.18;1.58;;;;;;;-145.70;100.00;63560.63;4964706;28;20109;-67
2022/06/29 14:09:09;;;;;;;10.13;2.30;;;;;;;-145.70;100.00;63560.63;4976456;28;20065;-68
2022/06/29 14:12:33;;;;;;;5.78;1.55;;;;;;;-145.70;100.00;63560.63;4979151;28;20057;-67
2022/06/29 14:15:57;;;;;;;10.48;1.95;;;;;;;-145.70;100.00;63560.63;4978996;28;20096;-67
2022/06/29 14:19:21;;;;;;;7.95;1.60;;;;;;;-145.70;100.00;63560.63;4977222;28;20034;-67
2022/06/29 14:22:45;;;;;;;6.78;2.15;;;;;;;-145.70;100.00;63560.63;4976319;28;20038;-66
2022/06/29 14:26:09;;;;;;;6.20;1.95;;;;;;;-145.70;100.00;63560.63;4979882;28;20048;-67
2022/06/29 14:29:35;;;;;;;8.52;2.50;;;;;;;-145.70;100.00;63560.63;4976677;28;20034;-68
2022/06/29 14:32:59;;;;;;;6.80;1.85;;;;;;;-145.70;100.00;63560.63;4963163;28;20038;-68
2022/06/29 14:36:23;;;;;;;5.68;1.60;;;;;;;-145.70;100.00;63560.63;4976216;28;20026;-68
2022/06/29 14:39:47;;;;;;;7.95;2.13;;;;;;;-145.70;100.00;63560.63;4978019;28;20030;-66
2022/06/29 14:43:11;;;;;;;6.80;1.35;;;;;;;-145.70;100.00;63560.63;4992378;28;20505;-66
2022/06/29 14:46:35;;;;;;;8.25;1.85;;;;;;;-145.70;100.00;63560.63;4991990;28;20038;-67
2022/06/29 14:49:59;;;;;;;7.18;1.90;;;;;;;-145.70;100.00;63560.63;4972879;28;20030;-68
2022/06/29 14:53:24;;;;;;;5.95;1.88;;;;;;;-145.70;100.00;63560.63;4977733;28;20077;-68
2022/06/29 14:56:47;;;;;;;7.68;1.60;;;;;;;-145.70;100.00;63560.63;4975174;28;20121;-67
2022/06/29 15:00:11;;;;;;;6.95;1.77;;;;;;;-145.70;100.00;63560.63;4978314;28;20035;-67
2022/06/29 15:03:35;;;;;;;8.82;1.98;;;;;;;-145.70;100.00;63560.63;4993985;28;20042;-67
2022/06/29 15:07:03;;;;;;;5.68;1.50;;;;;;;-145.70;100.00;63560.63;4976824;28;20030;-68
2022/06/29 15:10:30;;;;;;;7.50;1.58;;;;;;;-145.70;100.00;63560.63;4994809;28;20042;-67
2022/06/29 15:13:57;;;;;;;7.45;1.80;;;;;;;-145.70;100.00;63560.63;4951809;28;20650;-68
2022/06/29 15:17:22;;;;;;;7.72;1.70;;;;;;;-145.70;100.00;63560.63;4977751;28;20034;-68
2022/06/29 15:20:46;;;;;;;6.95;1.85;;;;;;;-145.70;100.00;63560.63;4988617;28;20901;-68
2022/06/29 15:24:11;;;;;;;10.50;1.73;;;;;;;-145.70;100.00;63560.63;4994473;28;20053;-67
2022/06/29 15:27:35;;;;;;;8.48;1.90;;;;;;;-145.70;100.00;63560.63;4993896;28;20481;-67
2022/06/29 15:31:00;;;;;;;8.90;1.80;;;;;;;-145.70;100.00;63560.63;4988551;28;20081;-63
2022/06/29 15:41:50;;;;;;;6.82;1.70;;;;;;;-145.70;100.00;63560.63;4980855;28;20037;-63
2022/06/29 15:45:14;;;;;;;7.07;1.58;;;;;;;-145.70;100.00;63560.63;4976578;28;20039;-62
2022/06/29 15:48:38;;;;;;;7.60;1.85;;;;;;;-145.70;100.00;63560.63;4976519;28;20489;-62
2022/06/29 15:52:03;;;;;;;6.57;1.65;;;;;;;-145.70;100.00;63560.63;4978249;28;20029;-63
2022/06/29 15:55:34;;;;;;;8.48;1.73;;;;;;;-145.70;100.00;63560.63;4971889;28;20045;-62
2022/06/29 15:58:58;;;;;;;7.75;1.75;;;;;;;-145.70;100.00;63560.63;4973588;28;20092;-63
2022/06/29 16:02:22;;;;;;;6.97;1.67;;;;;;;-145.70;100.00;63560.63;4979368;28;20042;-63
2022/06/29 16:05:45;;;;;;;7.18;1.80;;;;;;;-145.70;100.00;63560.63;4976871;28;20521;-63
2022/06/29 16:09:09;;;;;;;8.57;1.90;;;;;;;-145.70;100.00;63560.63;4977931;28;20041;-63
2022/06/29 16:12:33;;;;;;;10.65;2.25;;;;;;;-145.70;100.00;63560.63;4977296;28;20037;-63
2022/06/29 16:15:57;;;;;;;6.13;1.80;;;;;;;-145.70;100.00;63560.63;4963637;28;20030;-62